logo
Rechercher aéroport 
image banner adimage banner adimage banner ad
image banner ad

DXNG - Aeroport International De Niamtougou (Ain)

Situé à Niamtougou, Togo

ICAO - DXNG, IATA - LRL

Données fournies par Airmate  

Information générale

Coordonnées: N9°46'39" E1°5'44"
Élévation : 1515 feet MSL.
 
Voir autres Aéroports à Kara Region

Données opérationnelles

Special qualification required
Heure actuelle UTC:
Heure actuelle locale:
Météo
METAR: DXNG 032100Z 20004KT CAVOK 31/21 Q1013
TAF: TAF DXNG 031700Z 0318/0418 18007KT 9999 FEW010
Voir NOTAMs / SUP AIP / TFR affectant cet aéroport [VIEW]
Fréquences de communication: [VIEW]

Pistes:

Identifiant RWYQFULongueur (ft)Largeur (ft)SurfaceLDA (ft)
0323°8202148CON
21203°8202148CON

Coordonnées de l'aéroport

Adresse: Niamtougou Togo

Vue satellite de DXNG